Alief, Texas
Current Conditions -  °F | °C
As of 2:53 AM on Friday 24 Oct 2014 (Local Time) from KSGR Reporting Station
Clear Clear  
Wind Chill: 60°   Ceiling: Unl
Heat Index: 60°   Visibility: 10mi
Dew Point: 55°   Wind: 6mph
Humidity: 83%   Direction: 40°NE
Pressure: 30.12"   Gusts: NA
Location:  29.71°N, 95.6°W
Report Text: KSGR 240753Z AUTO 04005KT 10SM CLR 16/13 A3012 RMK AO2 SLP199 T01560128
Loading
Personal Weather Stations






























Interactive Weather Map
Tropical Storm Tracking
New forecast layout! Learn more

10-Day Weather Forecast

Advertisements
Track Severe Weather on mobile